createdAt,value
2018-02-06T00:01:47.741Z,70.40
2018-02-06T00:04:15.204Z,70.20
2018-02-06T00:06:42.679Z,70.10
2018-02-06T00:09:10.213Z,70.10
2018-02-06T00:11:37.689Z,70.10
2018-02-06T00:14:05.169Z,70.00
2018-02-06T00:16:32.631Z,70.20
2018-02-06T00:19:00.409Z,70.10
2018-02-06T00:21:28.637Z,69.80
2018-02-06T00:23:56.085Z,69.70
2018-02-06T00:26:23.569Z,69.70
2018-02-06T00:28:51.067Z,69.40
2018-02-06T00:31:18.613Z,69.40
2018-02-06T00:33:46.064Z,69.40
2018-02-06T00:36:13.552Z,69.50
2018-02-06T00:38:41.028Z,69.50
2018-02-06T00:41:08.521Z,69.40
2018-02-06T00:43:35.980Z,69.50
2018-02-06T00:46:03.456Z,69.50
2018-02-06T00:48:30.922Z,69.40
2018-02-06T00:50:59.169Z,69.50
2018-02-06T00:53:26.637Z,69.50
2018-02-06T00:55:54.123Z,69.50
2018-02-06T00:58:21.589Z,69.50
2018-02-06T01:00:49.119Z,69.40
2018-02-06T01:03:16.580Z,69.30
2018-02-06T01:05:44.086Z,69.30
2018-02-06T01:08:11.586Z,69.40
2018-02-06T01:10:39.049Z,69.40
2018-02-06T01:13:06.508Z,69.40
2018-02-06T01:15:34.018Z,69.30
2018-02-06T01:18:01.513Z,69.60
2018-02-06T01:20:28.996Z,69.40
2018-02-06T01:22:57.245Z,69.50
2018-02-06T01:25:24.737Z,69.40
2018-02-06T01:27:52.209Z,69.50
2018-02-06T01:30:19.702Z,70.20
2018-02-06T01:32:47.217Z,69.40
2018-02-06T01:35:15.458Z,69.40
2018-02-06T01:37:42.921Z,69.40
2018-02-06T01:40:10.419Z,69.50
2018-02-06T01:42:38.693Z,69.70
2018-02-06T01:45:06.152Z,69.70
2018-02-06T01:47:33.651Z,69.70
2018-02-06T01:50:04.921Z,69.70
2018-02-06T01:52:32.851Z,69.70
2018-02-06T01:55:00.337Z,69.70
2018-02-06T01:57:27.801Z,69.70
2018-02-06T01:59:55.293Z,69.70
2018-02-06T02:02:23.538Z,69.80
2018-02-06T02:04:51.009Z,69.80
2018-02-06T02:07:18.497Z,69.80
2018-02-06T02:09:46.042Z,69.80
2018-02-06T02:12:14.305Z,69.90
2018-02-06T02:14:41.777Z,70.00
2018-02-06T02:17:10.034Z,70.10
2018-02-06T02:19:37.530Z,70.10
2018-02-06T02:22:05.068Z,70.20
2018-02-06T02:24:32.549Z,70.30
2018-02-06T02:27:00.011Z,70.40
2018-02-06T02:29:27.505Z,70.40
2018-02-06T02:31:54.971Z,70.30
2018-02-06T02:34:22.456Z,70.30
2018-02-06T02:36:50.718Z,70.40
2018-02-06T02:39:18.201Z,70.20
2018-02-06T04:39:48.310Z,70.90
2018-02-06T04:42:15.760Z,70.90
2018-02-06T04:44:43.245Z,70.70
2018-02-06T04:47:10.702Z,70.70
2018-02-06T04:49:38.197Z,70.70
2018-02-06T04:52:05.689Z,70.70
2018-02-06T04:54:33.185Z,70.70
2018-02-06T04:57:00.668Z,70.80
2018-02-06T04:59:28.245Z,70.80
2018-02-06T05:01:55.706Z,70.70
2018-02-06T05:04:23.200Z,70.70
2018-02-06T05:06:50.661Z,70.60
2018-02-06T05:09:18.174Z,70.60
2018-02-06T05:11:45.641Z,70.60
2018-02-06T05:14:13.105Z,70.70
2018-02-06T05:16:40.673Z,70.80
2018-02-06T05:19:08.149Z,70.80
2018-02-06T05:21:35.618Z,70.80
2018-02-06T05:24:03.108Z,70.80
2018-02-06T05:26:31.341Z,70.70
2018-02-06T05:28:58.828Z,70.70
2018-02-06T05:31:27.082Z,70.70
2018-02-06T05:33:54.549Z,70.70
2018-02-06T05:36:22.022Z,70.80
2018-02-06T05:38:50.285Z,71.00
2018-02-06T05:41:17.744Z,71.00
2018-02-06T05:43:45.234Z,71.10
2018-02-06T05:46:12.700Z,71.00
2018-02-06T05:48:40.193Z,71.10
2018-02-06T05:51:07.656Z,70.90
2018-02-06T05:53:35.136Z,70.90
2018-02-06T05:56:02.637Z,70.80
2018-02-06T05:58:30.197Z,70.80
2018-02-06T06:00:57.652Z,70.90
2018-02-06T06:03:25.153Z,70.90
2018-02-06T06:05:52.626Z,70.90
2018-02-06T06:08:20.086Z,71.00
2018-02-06T06:10:47.582Z,71.00
2018-02-06T06:13:15.032Z,71.00
2018-02-06T06:15:42.504Z,71.00
2018-02-06T06:18:10.001Z,71.00
2018-02-06T06:20:37.481Z,70.90
2018-02-06T06:23:04.944Z,71.00
2018-02-06T06:25:33.211Z,71.00
2018-02-06T06:28:00.686Z,70.80
2018-02-06T06:30:28.958Z,71.00
2018-02-06T06:32:56.414Z,71.00
2018-02-06T06:35:23.909Z,71.20
2018-02-06T06:37:51.370Z,72.10
2018-02-06T06:40:19.857Z,71.50
2018-02-06T06:42:47.472Z,71.40
2018-02-06T06:45:14.959Z,71.50
2018-02-06T06:47:43.293Z,71.50
2018-02-06T06:50:10.785Z,71.20
2018-02-06T06:52:38.278Z,70.80
2018-02-06T06:55:05.778Z,70.90
2018-02-06T06:57:33.257Z,70.90
2018-02-06T07:00:01.485Z,70.70
2018-02-06T07:02:28.990Z,70.70
2018-02-06T07:04:56.457Z,70.50
2018-02-06T07:07:23.928Z,70.40
2018-02-06T07:09:51.384Z,70.60
2018-02-06T07:12:18.880Z,70.70
2018-02-06T07:14:46.345Z,70.70
2018-02-06T07:17:13.838Z,70.50
2018-02-06T07:19:41.397Z,70.50
2018-02-06T07:22:09.626Z,70.50
2018-02-06T07:24:37.118Z,70.40
2018-02-06T07:27:04.636Z,70.40
2018-02-06T07:29:32.142Z,70.40
2018-02-06T07:31:59.610Z,70.50
2018-02-06T07:34:27.120Z,70.40
2018-02-06T07:36:54.684Z,70.30
2018-02-06T07:39:22.157Z,70.20
2018-02-06T07:41:49.663Z,70.30
2018-02-06T07:44:17.146Z,70.20
2018-02-06T07:46:44.617Z,70.10
2018-02-06T07:49:12.144Z,70.20
2018-02-06T07:51:39.623Z,70.00
2018-02-06T07:54:07.134Z,70.70
2018-02-06T07:56:34.601Z,70.00
2018-02-06T07:59:02.626Z,69.90
2018-02-06T08:01:30.092Z,69.80
2018-02-06T08:03:57.589Z,69.80
2018-02-06T08:06:25.054Z,69.70
2018-02-06T08:08:52.522Z,69.70
2018-02-06T08:11:20.117Z,69.60
2018-02-06T08:13:47.867Z,69.60
2018-02-06T08:16:15.338Z,69.60
2018-02-06T08:18:42.882Z,69.60
2018-02-06T08:21:10.370Z,69.70
2018-02-06T08:23:37.834Z,69.70
2018-02-06T08:26:05.371Z,69.60
2018-02-06T08:28:33.794Z,69.70
2018-02-06T08:31:01.245Z,69.50
2018-02-06T08:33:28.713Z,69.50
2018-02-06T08:35:57.000Z,69.60
2018-02-06T08:38:24.763Z,69.40
2018-02-06T08:40:52.233Z,69.60
2018-02-06T08:43:19.710Z,69.60
2018-02-06T08:45:47.174Z,69.40
2018-02-06T08:48:14.733Z,69.40
2018-02-06T08:50:42.195Z,69.30
2018-02-06T08:53:09.695Z,69.20
2018-02-06T08:55:37.190Z,69.20
2018-02-06T08:58:04.786Z,69.10
2018-02-06T09:00:32.246Z,69.10
2018-02-06T09:02:59.738Z,69.00
2018-02-06T09:05:27.337Z,68.90
2018-02-06T09:07:54.831Z,69.00
2018-02-06T09:10:22.300Z,68.70
2018-02-06T09:12:49.782Z,68.50
2018-02-06T09:15:18.018Z,68.40
2018-02-06T09:17:45.510Z,68.40
2018-02-06T09:20:12.977Z,68.30
2018-02-06T09:22:40.484Z,68.10
2018-02-06T09:25:07.964Z,67.90
2018-02-06T09:27:35.488Z,67.90
2018-02-06T09:30:02.969Z,67.80
2018-02-06T09:32:30.447Z,67.60
2018-02-06T09:34:57.929Z,67.30
2018-02-06T09:37:25.433Z,67.30
2018-02-06T09:39:52.958Z,66.90
2018-02-06T09:42:21.221Z,66.50
2018-02-06T09:44:49.479Z,66.60
2018-02-06T09:47:16.968Z,66.50
2018-02-06T09:49:45.196Z,66.60
2018-02-06T09:52:12.864Z,66.50
2018-02-06T09:54:40.318Z,66.50
2018-02-06T09:57:07.833Z,66.50
2018-02-06T09:59:35.277Z,66.30
2018-02-06T10:02:03.504Z,66.50
2018-02-06T10:04:31.047Z,66.50
2018-02-06T10:06:58.511Z,66.50
2018-02-06T10:09:25.986Z,66.50
2018-02-06T10:11:53.476Z,66.60
2018-02-06T10:14:20.946Z,66.50
2018-02-06T10:16:48.428Z,66.50
2018-02-06T10:19:15.949Z,66.60
2018-02-06T10:21:44.184Z,66.30
2018-02-06T10:24:11.668Z,66.20
2018-02-06T10:26:39.133Z,66.20
2018-02-06T10:29:06.616Z,66.00
2018-02-06T10:31:34.832Z,65.80
2018-02-06T10:34:02.309Z,65.80
2018-02-06T10:36:29.793Z,65.60
2018-02-06T10:38:57.281Z,66.30
2018-02-06T10:41:24.749Z,65.70
2018-02-06T10:43:52.220Z,65.60
2018-02-06T10:46:19.726Z,65.30
2018-02-06T10:48:47.239Z,64.70
2018-02-06T10:51:14.737Z,64.40
2018-02-06T10:53:42.195Z,64.00
2018-02-06T10:56:09.667Z,63.20
2018-02-06T10:58:37.195Z,62.70
2018-02-06T11:01:04.642Z,63.10
2018-02-06T11:03:32.095Z,62.70
2018-02-06T11:05:59.588Z,62.00
2018-02-06T11:08:27.048Z,62.00
2018-02-06T11:10:54.560Z,61.40
2018-02-06T11:13:22.028Z,61.30
2018-02-06T11:15:49.481Z,61.00
2018-02-06T11:18:16.968Z,60.70
2018-02-06T11:20:44.440Z,60.30
2018-02-06T11:23:11.936Z,60.40
2018-02-06T11:25:39.401Z,60.40
2018-02-06T11:28:06.877Z,60.00
2018-02-06T11:30:34.359Z,60.20
2018-02-06T11:33:01.829Z,60.00
2018-02-06T11:35:29.310Z,59.60
2018-02-06T11:37:56.769Z,59.40
2018-02-06T11:40:24.238Z,59.00
2018-02-06T11:42:51.726Z,58.50
2018-02-06T11:45:19.185Z,58.50
2018-02-06T11:47:46.678Z,58.50
2018-02-06T11:50:14.191Z,58.60
2018-02-06T11:52:41.681Z,58.60
2018-02-06T11:55:09.211Z,58.70
2018-02-06T11:57:36.677Z,58.70
2018-02-06T12:00:04.197Z,58.60
2018-02-06T12:02:32.969Z,58.40
2018-02-06T12:05:00.421Z,58.40
2018-02-06T12:07:27.889Z,58.40
2018-02-06T12:09:55.357Z,58.30
2018-02-06T12:12:22.857Z,58.40
2018-02-06T12:14:50.344Z,58.50
2018-02-06T12:17:17.822Z,58.90
2018-02-06T12:19:45.305Z,59.10
2018-02-06T12:22:13.533Z,58.90
2018-02-06T12:24:41.033Z,58.80
2018-02-06T12:27:09.248Z,58.80
2018-02-06T12:29:36.752Z,58.70
2018-02-06T12:32:04.228Z,58.70
2018-02-06T12:34:32.473Z,58.80
2018-02-06T12:36:59.976Z,58.80
2018-02-06T12:39:27.736Z,58.60
2018-02-06T12:41:55.192Z,58.50
2018-02-06T12:44:22.644Z,58.50
2018-02-06T12:46:50.122Z,58.50
2018-02-06T12:49:17.592Z,58.70
2018-02-06T12:51:45.049Z,58.70
2018-02-06T12:54:12.555Z,58.70
2018-02-06T12:56:40.830Z,58.20
2018-02-06T12:59:09.157Z,58.10
2018-02-06T13:01:36.657Z,58.10
2018-02-06T13:04:05.035Z,57.90
2018-02-06T13:06:32.511Z,58.10
2018-02-06T13:09:00.777Z,57.90
2018-02-06T13:11:28.245Z,57.90
2018-02-06T13:13:55.737Z,58.10
2018-02-06T13:16:23.192Z,58.10
2018-02-06T13:18:50.642Z,58.10
2018-02-06T13:21:18.881Z,57.80
2018-02-06T13:23:46.324Z,57.70
2018-02-06T13:26:13.804Z,57.90
2018-02-06T13:28:41.273Z,57.50
2018-02-06T13:31:09.512Z,57.30
2018-02-06T13:33:36.992Z,57.20
2018-02-06T13:36:04.436Z,57.30
2018-02-06T13:38:31.912Z,57.20
2018-02-06T13:40:59.360Z,57.00
2018-02-06T13:43:26.924Z,56.90
2018-02-06T13:45:54.429Z,56.90
2018-02-06T13:48:21.888Z,56.90
2018-02-06T13:50:49.384Z,56.70
2018-02-06T13:53:16.971Z,56.20
2018-02-06T13:55:44.565Z,55.70
2018-02-06T13:58:12.054Z,55.40
2018-02-06T14:00:39.540Z,55.40
2018-02-06T14:03:07.021Z,55.60
2018-02-06T14:05:34.500Z,55.80
2018-02-06T14:08:01.972Z,55.50
2018-02-06T14:10:29.438Z,55.60
2018-02-06T14:12:56.918Z,55.70
2018-02-06T14:15:24.399Z,55.80
2018-02-06T14:17:51.871Z,56.00
2018-02-06T14:20:20.214Z,56.10
2018-02-06T14:22:47.706Z,56.10
2018-02-06T14:25:15.971Z,56.10
2018-02-06T14:27:43.416Z,56.00
2018-02-06T14:30:10.902Z,56.10
2018-02-06T14:32:38.393Z,56.80
2018-02-06T14:35:05.896Z,56.30
2018-02-06T14:37:33.428Z,56.40
2018-02-06T14:40:00.922Z,56.40
2018-02-06T14:42:28.377Z,56.20
2018-02-06T14:44:55.864Z,56.30
2018-02-06T14:47:23.326Z,56.30
2018-02-06T14:49:50.905Z,56.30
2018-02-06T14:52:18.372Z,56.40
2018-02-06T14:54:45.845Z,56.30
2018-02-06T14:57:13.323Z,56.40
2018-02-06T14:59:40.773Z,56.50
2018-02-06T15:02:08.245Z,56.60
2018-02-06T15:04:35.735Z,56.80
2018-02-06T15:07:03.232Z,56.90
2018-02-06T15:09:30.700Z,57.00
2018-02-06T15:11:58.315Z,57.10
2018-02-06T15:14:25.806Z,57.20
2018-02-06T15:16:53.278Z,57.20
2018-02-06T15:19:20.789Z,57.70
2018-02-06T15:21:48.241Z,57.20
2018-02-06T15:24:16.763Z,57.40
2018-02-06T15:26:44.213Z,57.30
2018-02-06T15:29:12.831Z,57.40
2018-02-06T15:31:40.316Z,57.60
2018-02-06T15:34:09.389Z,57.70
2018-02-06T15:36:37.826Z,57.90
2018-02-06T15:39:05.328Z,57.90
2018-02-06T15:41:32.989Z,58.00
2018-02-06T15:44:00.611Z,58.00
2018-02-06T15:46:28.074Z,58.00
2018-02-06T15:48:55.647Z,58.10
2018-02-06T15:51:23.240Z,58.30
2018-02-06T15:53:50.789Z,58.30
2018-02-06T15:56:18.332Z,58.20
2018-02-06T15:58:45.907Z,58.30
2018-02-06T16:01:16.349Z,58.40
2018-02-06T16:03:43.807Z,58.40
2018-02-06T16:06:11.360Z,58.50
2018-02-06T16:08:38.835Z,58.40
2018-02-06T16:11:06.432Z,58.50
2018-02-06T16:13:34.051Z,58.70
2018-02-06T16:16:01.586Z,58.80
2018-02-06T16:18:29.116Z,58.90
2018-02-06T16:20:56.602Z,58.80
2018-02-06T16:23:24.096Z,58.70
2018-02-06T16:25:52.329Z,58.70
2018-02-06T16:28:19.834Z,58.60
2018-02-06T16:30:47.324Z,58.80
2018-02-06T16:33:14.821Z,59.00
2018-02-06T16:35:43.220Z,59.30
2018-02-06T16:38:10.733Z,59.20
2018-02-06T16:40:38.426Z,59.30
2018-02-06T16:43:06.144Z,59.40
2018-02-06T16:45:33.673Z,59.50
2018-02-06T16:48:01.142Z,59.60
2018-02-06T16:50:28.644Z,59.50
2018-02-06T16:52:56.105Z,59.60
2018-02-06T16:55:23.670Z,59.70
2018-02-06T16:57:51.208Z,59.80
2018-02-06T17:00:18.985Z,59.90
2018-02-06T17:02:46.602Z,60.10
2018-02-06T17:05:14.878Z,60.30
2018-02-06T17:07:42.519Z,60.30
2018-02-06T17:10:10.257Z,60.30
2018-02-06T17:12:38.752Z,60.60
2018-02-06T17:15:07.114Z,60.70
2018-02-06T17:17:34.770Z,60.70
2018-02-06T17:20:02.294Z,60.90
2018-02-06T17:22:30.402Z,60.90
2018-02-06T17:24:57.929Z,61.10
2018-02-06T17:27:26.322Z,61.30
2018-02-06T17:29:53.821Z,61.30
2018-02-06T17:32:21.308Z,61.40
2018-02-06T17:34:48.893Z,61.50
2018-02-06T17:37:16.509Z,61.50
2018-02-06T17:39:44.000Z,61.70
2018-02-06T17:42:11.481Z,61.90
2018-02-06T17:44:38.937Z,62.00
2018-02-06T17:47:06.424Z,62.10
2018-02-06T17:49:33.892Z,62.10
2018-02-06T17:52:01.376Z,62.00
2018-02-06T17:54:28.880Z,62.10
2018-02-06T17:56:56.427Z,62.20
2018-02-06T17:59:23.845Z,62.10
2018-02-06T18:01:51.334Z,62.20
2018-02-06T18:04:19.020Z,62.20
2018-02-06T18:06:46.502Z,62.30
2018-02-06T18:09:14.039Z,62.40
2018-02-06T18:11:42.340Z,62.50
2018-02-06T18:14:09.800Z,62.50
2018-02-06T18:16:37.283Z,62.50
2018-02-06T18:19:04.761Z,62.60
2018-02-06T18:21:32.304Z,62.60
2018-02-06T18:23:59.783Z,62.70
2018-02-06T18:26:28.030Z,62.80
2018-02-06T18:28:55.496Z,62.80
2018-02-06T18:31:23.236Z,62.80
2018-02-06T18:33:50.756Z,62.80
2018-02-06T18:36:18.312Z,62.80
2018-02-06T18:38:45.895Z,62.90
2018-02-06T18:41:13.413Z,62.90
2018-02-06T18:43:41.669Z,63.10
2018-02-06T18:46:09.126Z,63.10
2018-02-06T18:48:36.610Z,63.10
2018-02-06T18:51:04.833Z,63.20
2018-02-06T18:53:32.438Z,63.20
2018-02-06T18:56:00.666Z,63.30
2018-02-06T18:58:28.176Z,63.30
2018-02-06T19:00:55.720Z,63.40
2018-02-06T19:03:23.236Z,63.40
2018-02-06T19:05:50.731Z,63.20
2018-02-06T19:08:18.200Z,63.20
2018-02-06T19:10:45.677Z,63.20
2018-02-06T19:13:13.359Z,62.90
2018-02-06T19:15:41.172Z,62.80
2018-02-06T19:18:08.674Z,62.80
2018-02-06T19:20:36.263Z,62.60
2018-02-06T19:23:03.741Z,62.50
2018-02-06T19:25:31.232Z,62.40
2018-02-06T19:27:58.756Z,62.30
2018-02-06T19:30:26.258Z,62.20
2018-02-06T19:32:54.690Z,62.10
2018-02-06T19:35:22.393Z,62.10
2018-02-06T19:37:50.659Z,62.10
2018-02-06T19:40:18.155Z,62.10
2018-02-06T19:42:46.397Z,61.90
2018-02-06T19:45:14.038Z,61.90
2018-02-06T19:47:41.542Z,61.90
2018-02-06T19:50:09.805Z,62.00
2018-02-06T19:52:37.312Z,62.00
2018-02-06T19:55:04.966Z,62.00
2018-02-06T19:57:32.465Z,62.10
2018-02-06T20:00:00.056Z,62.20
2018-02-06T20:02:28.340Z,62.30
2018-02-06T20:04:56.810Z,62.30
2018-02-06T20:07:24.436Z,62.30
2018-02-06T20:09:52.724Z,62.50
2018-02-06T20:12:20.475Z,62.30
2018-02-06T20:14:48.749Z,62.40
2018-02-06T20:17:16.230Z,62.40
2018-02-06T20:19:43.748Z,62.40
2018-02-06T20:22:11.979Z,62.60
2018-02-06T20:24:39.655Z,62.50
2018-02-06T20:27:08.127Z,62.40
2018-02-06T20:29:36.444Z,62.40
2018-02-06T20:32:04.055Z,62.30
2018-02-06T20:34:32.328Z,62.30
2018-02-06T20:36:59.900Z,62.30
2018-02-06T20:39:27.354Z,63.00
2018-02-06T20:41:54.909Z,62.20
2018-02-06T20:44:22.361Z,62.10
2018-02-06T20:46:50.080Z,62.10
2018-02-06T20:49:17.581Z,62.00
2018-02-06T20:51:45.177Z,62.00
2018-02-06T20:54:12.853Z,62.00
2018-02-06T20:56:40.355Z,62.00
2018-02-06T20:59:07.829Z,61.90
2018-02-06T21:01:35.436Z,61.80
2018-02-06T21:04:02.929Z,61.90
2018-02-06T21:06:30.433Z,61.80
2018-02-06T21:08:58.008Z,61.90
2018-02-06T21:11:25.769Z,61.80
2018-02-06T21:13:53.302Z,61.60
2018-02-06T21:16:20.945Z,61.80
2018-02-06T21:18:48.487Z,61.90
2018-02-06T21:21:16.033Z,61.80
2018-02-06T21:23:43.678Z,61.90
2018-02-06T21:26:11.327Z,61.80
2018-02-06T21:28:38.882Z,61.90
2018-02-06T21:31:07.142Z,62.00
2018-02-06T21:33:34.606Z,61.90
2018-02-06T21:36:02.089Z,62.00
2018-02-06T21:38:29.568Z,62.20
2018-02-06T21:40:57.025Z,62.20
2018-02-06T21:43:24.501Z,62.10
2018-02-06T21:45:51.991Z,62.10
2018-02-06T21:48:19.484Z,62.20
2018-02-06T21:50:46.950Z,62.20
2018-02-06T21:53:14.434Z,62.30
2018-02-06T21:55:42.662Z,62.60
2018-02-06T21:58:10.141Z,62.60
2018-02-06T22:00:37.597Z,62.60
2018-02-06T22:03:05.109Z,62.60
2018-02-06T22:05:32.598Z,62.60
2018-02-06T22:08:00.854Z,62.80
2018-02-06T22:10:28.346Z,62.80
2018-02-06T22:12:56.629Z,62.90
2018-02-06T22:15:24.119Z,62.90
2018-02-06T22:17:51.586Z,62.90
2018-02-06T22:20:19.079Z,62.90
2018-02-06T22:22:46.567Z,63.00
2018-02-06T22:25:14.070Z,63.00
2018-02-06T22:27:41.577Z,62.90
2018-02-06T22:30:09.038Z,63.00
2018-02-06T22:32:36.501Z,63.10
2018-02-06T22:35:04.006Z,63.10
2018-02-06T22:37:31.476Z,63.00
2018-02-06T22:39:58.930Z,63.10
2018-02-06T22:42:26.419Z,63.20
2018-02-06T22:44:53.879Z,63.20
2018-02-06T22:47:21.370Z,63.20
2018-02-06T22:49:48.907Z,63.30
2018-02-06T22:52:16.379Z,63.40
2018-02-06T22:54:43.853Z,63.30
2018-02-06T22:57:11.321Z,63.30
2018-02-06T22:59:38.809Z,63.30
2018-02-06T23:02:06.273Z,63.40
2018-02-06T23:04:33.977Z,63.40
2018-02-06T23:07:01.472Z,63.40
2018-02-06T23:09:28.955Z,63.30
2018-02-06T23:11:57.212Z,63.40
2018-02-06T23:14:24.700Z,63.40
2018-02-06T23:16:52.950Z,63.60
2018-02-06T23:19:20.429Z,63.50
2018-02-06T23:21:48.659Z,63.60
2018-02-06T23:24:16.177Z,63.50
2018-02-06T23:26:44.394Z,63.60
2018-02-06T23:29:11.894Z,63.60
2018-02-06T23:31:40.133Z,63.70
2018-02-06T23:34:07.618Z,63.70
2018-02-06T23:36:35.885Z,63.90
2018-02-06T23:39:03.369Z,63.60
2018-02-06T23:41:31.605Z,63.80
2018-02-06T23:43:59.068Z,63.80
2018-02-06T23:46:26.565Z,63.80
2018-02-06T23:48:55.894Z,63.70
2018-02-06T23:51:23.370Z,63.70
2018-02-06T23:53:50.865Z,63.70
2018-02-06T23:56:18.356Z,63.90
2018-02-06T23:58:45.828Z,64.00
